sensor_id;sensor_type;location;lat;lon;timestamp;temperature;humidity
55331;DHT22;58851;42.984;20.336;2022-10-29T00:00:26;154.40;6502.40
55331;DHT22;58851;42.984;20.336;2022-10-29T00:02:52;154.40;6502.40
55331;DHT22;58851;42.984;20.336;2022-10-29T00:05:18;154.40;6502.40
55331;DHT22;58851;42.984;20.336;2022-10-29T00:07:44;154.40;6502.40
55331;DHT22;58851;42.984;20.336;2022-10-29T00:10:09;154.40;6502.40
55331;DHT22;58851;42.984;20.336;2022-10-29T00:12:35;154.20;6502.40
55331;DHT22;58851;42.984;20.336;2022-10-29T00:15:02;154.30;6502.40
55331;DHT22;58851;42.984;20.336;2022-10-29T00:17:27;154.30;6502.40
55331;DHT22;58851;42.984;20.336;2022-10-29T00:19:53;154.20;6502.40
55331;DHT22;58851;42.984;20.336;2022-10-29T00:22:19;154.20;6502.40
55331;DHT22;58851;42.984;20.336;2022-10-29T00:24:45;154.10;6502.40
55331;DHT22;58851;42.984;20.336;2022-10-29T00:27:11;154.20;6502.40
55331;DHT22;58851;42.984;20.336;2022-10-29T00:29:37;154.20;6502.40
55331;DHT22;58851;42.984;20.336;2022-10-29T00:32:02;154.10;6502.40
55331;DHT22;58851;42.984;20.336;2022-10-29T00:34:28;154.10;6502.40
55331;DHT22;58851;42.984;20.336;2022-10-29T00:36:54;154.00;6502.40
55331;DHT22;58851;42.984;20.336;2022-10-29T00:39:20;154.00;6502.40
55331;DHT22;58851;42.984;20.336;2022-10-29T00:41:45;153.90;6502.40
55331;DHT22;58851;42.984;20.336;2022-10-29T00:46:47;153.90;6502.40
55331;DHT22;58851;42.984;20.336;2022-10-29T00:49:14;153.90;6502.40
55331;DHT22;58851;42.984;20.336;2022-10-29T00:51:41;153.90;6502.40
55331;DHT22;58851;42.984;20.336;2022-10-29T00:54:09;153.80;6502.40
55331;DHT22;58851;42.984;20.336;2022-10-29T00:56:39;153.70;6502.40
55331;DHT22;58851;42.984;20.336;2022-10-29T00:59:06;153.70;6502.40
55331;DHT22;58851;42.984;20.336;2022-10-29T01:01:33;153.70;6502.40
55331;DHT22;58851;42.984;20.336;2022-10-29T01:03:59;128.80;6502.40
55331;DHT22;58851;42.984;20.336;2022-10-29T01:06:27;128.80;6502.40
55331;DHT22;58851;42.984;20.336;2022-10-29T01:08:54;128.90;6502.40
55331;DHT22;58851;42.984;20.336;2022-10-29T01:11:28;153.60;6502.40
55331;DHT22;58851;42.984;20.336;2022-10-29T01:16:44;128.80;6502.40
55331;DHT22;58851;42.984;20.336;2022-10-29T01:19:39;128.90;6502.40
55331;DHT22;58851;42.984;20.336;2022-10-29T01:25:14;128.80;6502.40
55331;DHT22;58851;42.984;20.336;2022-10-29T01:27:51;128.90;6502.40
55331;DHT22;58851;42.984;20.336;2022-10-29T01:33:10;128.90;6502.40
55331;DHT22;58851;42.984;20.336;2022-10-29T01:35:58;153.60;6502.40
55331;DHT22;58851;42.984;20.336;2022-10-29T01:46:56;153.70;6502.40
55331;DHT22;58851;42.984;20.336;2022-10-29T01:49:27;153.70;6502.40
55331;DHT22;58851;42.984;20.336;2022-10-29T01:51:57;153.70;6502.40
55331;DHT22;58851;42.984;20.336;2022-10-29T01:54:26;153.70;6502.40
55331;DHT22;58851;42.984;20.336;2022-10-29T01:56:56;153.70;6502.40
55331;DHT22;58851;42.984;20.336;2022-10-29T01:59:28;153.80;6502.40
55331;DHT22;58851;42.984;20.336;2022-10-29T02:02:07;153.90;6502.40
55331;DHT22;58851;42.984;20.336;2022-10-29T02:04:53;153.90;6502.40
55331;DHT22;58851;42.984;20.336;2022-10-29T02:12:33;154.00;6502.40
55331;DHT22;58851;42.984;20.336;2022-10-29T02:15:02;154.00;6502.40
55331;DHT22;58851;42.984;20.336;2022-10-29T02:17:32;153.90;6502.40
55331;DHT22;58851;42.984;20.336;2022-10-29T02:20:05;154.10;6502.40
55331;DHT22;58851;42.984;20.336;2022-10-29T02:22:31;154.10;6502.40
55331;DHT22;58851;42.984;20.336;2022-10-29T02:24:57;154.10;6502.40
55331;DHT22;58851;42.984;20.336;2022-10-29T02:27:23;154.10;6502.40
55331;DHT22;58851;42.984;20.336;2022-10-29T02:29:48;154.10;6502.40
55331;DHT22;58851;42.984;20.336;2022-10-29T02:32:14;154.20;6502.40
55331;DHT22;58851;42.984;20.336;2022-10-29T02:34:40;154.10;6502.40
55331;DHT22;58851;42.984;20.336;2022-10-29T02:37:06;154.20;6502.40
55331;DHT22;58851;42.984;20.336;2022-10-29T02:39:32;154.20;6502.40
55331;DHT22;58851;42.984;20.336;2022-10-29T02:41:58;154.30;6502.40
55331;DHT22;58851;42.984;20.336;2022-10-29T02:44:23;154.20;6502.40
55331;DHT22;58851;42.984;20.336;2022-10-29T02:46:49;154.20;6502.40
55331;DHT22;58851;42.984;20.336;2022-10-29T02:49:15;154.30;6502.40
55331;DHT22;58851;42.984;20.336;2022-10-29T02:51:41;154.30;6502.40
55331;DHT22;58851;42.984;20.336;2022-10-29T02:54:07;154.20;6502.40
55331;DHT22;58851;42.984;20.336;2022-10-29T02:56:33;154.30;6502.40
55331;DHT22;58851;42.984;20.336;2022-10-29T02:58:59;154.20;6502.40
55331;DHT22;58851;42.984;20.336;2022-10-29T03:01:24;154.30;6502.40
55331;DHT22;58851;42.984;20.336;2022-10-29T03:03:50;154.20;6502.40
55331;DHT22;58851;42.984;20.336;2022-10-29T03:06:18;154.20;6502.40
55331;DHT22;58851;42.984;20.336;2022-10-29T03:08:44;154.30;6502.40
55331;DHT22;58851;42.984;20.336;2022-10-29T03:11:11;154.20;6502.40
55331;DHT22;58851;42.984;20.336;2022-10-29T03:13:37;154.30;6502.40
55331;DHT22;58851;42.984;20.336;2022-10-29T03:16:03;154.40;6502.40
55331;DHT22;58851;42.984;20.336;2022-10-29T03:18:29;154.40;6502.40
55331;DHT22;58851;42.984;20.336;2022-10-29T03:20:55;154.40;6502.40
55331;DHT22;58851;42.984;20.336;2022-10-29T03:23:21;154.50;6502.40
55331;DHT22;58851;42.984;20.336;2022-10-29T03:25:53;154.40;6502.40
55331;DHT22;58851;42.984;20.336;2022-10-29T03:28:20;154.50;6502.40
55331;DHT22;58851;42.984;20.336;2022-10-29T03:30:47;154.40;128.00
55331;DHT22;58851;42.984;20.336;2022-10-29T03:33:13;154.30;6502.40
55331;DHT22;58851;42.984;20.336;2022-10-29T03:35:38;154.40;6502.40
55331;DHT22;58851;42.984;20.336;2022-10-29T03:38:04;154.40;409.60
55331;DHT22;58851;42.984;20.336;2022-10-29T03:40:30;154.40;307.20
55331;DHT22;58851;42.984;20.336;2022-10-29T03:42:56;154.40;6502.40
55331;DHT22;58851;42.984;20.336;2022-10-29T03:45:22;154.50;6502.40
55331;DHT22;58851;42.984;20.336;2022-10-29T03:47:48;154.40;6502.40
55331;DHT22;58851;42.984;20.336;2022-10-29T03:50:13;154.20;153.60
55331;DHT22;58851;42.984;20.336;2022-10-29T03:52:39;154.10;256.00
55331;DHT22;58851;42.984;20.336;2022-10-29T03:55:06;154.30;256.00
55331;DHT22;58851;42.984;20.336;2022-10-29T03:57:32;154.30;230.40
55331;DHT22;58851;42.984;20.336;2022-10-29T03:59:58;154.20;6502.40
55331;DHT22;58851;42.984;20.336;2022-10-29T04:02:25;154.20;512.00
55331;DHT22;58851;42.984;20.336;2022-10-29T04:04:50;154.20;6502.40
55331;DHT22;58851;42.984;20.336;2022-10-29T04:07:16;154.20;6502.40
55331;DHT22;58851;42.984;20.336;2022-10-29T04:09:42;154.40;435.20
55331;DHT22;58851;42.984;20.336;2022-10-29T04:12:08;154.40;128.00
55331;DHT22;58851;42.984;20.336;2022-10-29T04:14:34;154.40;512.00
55331;DHT22;58851;42.984;20.336;2022-10-29T04:17:00;154.40;6502.40
55331;DHT22;58851;42.984;20.336;2022-10-29T04:19:25;154.40;6502.40
55331;DHT22;58851;42.984;20.336;2022-10-29T04:21:51;154.40;486.40
55331;DHT22;58851;42.984;20.336;2022-10-29T04:24:17;154.40;307.20
55331;DHT22;58851;42.984;20.336;2022-10-29T04:26:43;154.50;128.00
55331;DHT22;58851;42.984;20.336;2022-10-29T04:29:09;154.50;6502.40
55331;DHT22;58851;42.984;20.336;2022-10-29T04:31:36;154.40;6502.40
55331;DHT22;58851;42.984;20.336;2022-10-29T04:34:02;154.40;6502.40
55331;DHT22;58851;42.984;20.336;2022-10-29T04:36:28;154.40;6502.40
55331;DHT22;58851;42.984;20.336;2022-10-29T04:38:54;154.30;128.00
55331;DHT22;58851;42.984;20.336;2022-10-29T04:41:19;154.20;460.80
55331;DHT22;58851;42.984;20.336;2022-10-29T04:43:45;154.10;6502.40
55331;DHT22;58851;42.984;20.336;2022-10-29T04:46:11;154.00;6502.40
55331;DHT22;58851;42.984;20.336;2022-10-29T04:48:37;153.80;6502.40
55331;DHT22;58851;42.984;20.336;2022-10-29T04:51:03;154.00;6502.40
55331;DHT22;58851;42.984;20.336;2022-10-29T04:53:29;154.00;6502.40
55331;DHT22;58851;42.984;20.336;2022-10-29T04:55:59;153.80;6502.40
55331;DHT22;58851;42.984;20.336;2022-10-29T04:58:30;154.00;6502.40
55331;DHT22;58851;42.984;20.336;2022-10-29T05:01:03;153.90;6502.40
55331;DHT22;58851;42.984;20.336;2022-10-29T05:03:32;153.90;6502.40
55331;DHT22;58851;42.984;20.336;2022-10-29T05:06:01;153.80;6502.40
55331;DHT22;58851;42.984;20.336;2022-10-29T05:08:26;153.60;6502.40
55331;DHT22;58851;42.984;20.336;2022-10-29T05:10:52;153.70;6502.40
55331;DHT22;58851;42.984;20.336;2022-10-29T05:13:18;153.70;6502.40
55331;DHT22;58851;42.984;20.336;2022-10-29T05:15:51;153.80;6502.40
55331;DHT22;58851;42.984;20.336;2022-10-29T05:18:17;153.80;6502.40
55331;DHT22;58851;42.984;20.336;2022-10-29T05:20:43;153.80;6502.40
55331;DHT22;58851;42.984;20.336;2022-10-29T05:23:10;153.80;6502.40
55331;DHT22;58851;42.984;20.336;2022-10-29T05:25:38;153.80;6502.40
55331;DHT22;58851;42.984;20.336;2022-10-29T05:28:06;153.90;6502.40
55331;DHT22;58851;42.984;20.336;2022-10-29T05:30:33;153.90;6502.40
55331;DHT22;58851;42.984;20.336;2022-10-29T05:32:59;154.00;6502.40
55331;DHT22;58851;42.984;20.336;2022-10-29T05:35:25;154.10;6502.40
55331;DHT22;58851;42.984;20.336;2022-10-29T05:37:52;154.20;6502.40
55331;DHT22;58851;42.984;20.336;2022-10-29T05:40:18;154.30;307.20
55331;DHT22;58851;42.984;20.336;2022-10-29T05:42:44;154.20;6502.40
55331;DHT22;58851;42.984;20.336;2022-10-29T05:45:10;154.30;435.20
55331;DHT22;58851;42.984;20.336;2022-10-29T05:47:36;154.40;6528.00
55331;DHT22;58851;42.984;20.336;2022-10-29T05:50:02;154.40;6528.00
55331;DHT22;58851;42.984;20.336;2022-10-29T05:52:28;154.40;358.40
55331;DHT22;58851;42.984;20.336;2022-10-29T05:54:54;154.50;230.40
55331;DHT22;58851;42.984;20.336;2022-10-29T05:57:20;179.20;6502.40
55331;DHT22;58851;42.984;20.336;2022-10-29T05:59:46;179.20;6502.40
55331;DHT22;58851;42.984;20.336;2022-10-29T06:02:12;179.30;6502.40
55331;DHT22;58851;42.984;20.336;2022-10-29T06:04:37;179.30;6502.40
55331;DHT22;58851;42.984;20.336;2022-10-29T06:07:03;179.40;6502.40
55331;DHT22;58851;42.984;20.336;2022-10-29T06:09:29;179.40;6502.40
55331;DHT22;58851;42.984;20.336;2022-10-29T06:11:55;179.40;6502.40
55331;DHT22;58851;42.984;20.336;2022-10-29T06:14:21;179.50;6502.40
55331;DHT22;58851;42.984;20.336;2022-10-29T06:16:47;179.60;6502.40
55331;DHT22;58851;42.984;20.336;2022-10-29T06:19:13;179.60;6502.40
55331;DHT22;58851;42.984;20.336;2022-10-29T06:21:39;179.60;6502.40
55331;DHT22;58851;42.984;20.336;2022-10-29T06:24:05;179.60;6502.40
55331;DHT22;58851;42.984;20.336;2022-10-29T06:26:31;179.60;6502.40
55331;DHT22;58851;42.984;20.336;2022-10-29T06:28:57;179.60;6502.40
55331;DHT22;58851;42.984;20.336;2022-10-29T06:31:22;179.70;6502.40
55331;DHT22;58851;42.984;20.336;2022-10-29T06:33:48;179.70;6502.40
55331;DHT22;58851;42.984;20.336;2022-10-29T06:36:14;179.70;6502.40
55331;DHT22;58851;42.984;20.336;2022-10-29T06:38:40;179.80;6502.40
55331;DHT22;58851;42.984;20.336;2022-10-29T06:41:05;179.80;6502.40
55331;DHT22;58851;42.984;20.336;2022-10-29T06:43:32;179.80;6502.40
55331;DHT22;58851;42.984;20.336;2022-10-29T06:45:57;179.90;6502.40
55331;DHT22;58851;42.984;20.336;2022-10-29T06:48:23;179.90;6502.40
55331;DHT22;58851;42.984;20.336;2022-10-29T06:50:49;180.00;6502.40
55331;DHT22;58851;42.984;20.336;2022-10-29T06:53:16;180.00;6502.40
55331;DHT22;58851;42.984;20.336;2022-10-29T06:55:42;179.90;6502.40
55331;DHT22;58851;42.984;20.336;2022-10-29T06:58:12;180.00;6502.40
55331;DHT22;58851;42.984;20.336;2022-10-29T07:00:39;179.90;6502.40
55331;DHT22;58851;42.984;20.336;2022-10-29T07:03:05;180.00;6502.40
55331;DHT22;58851;42.984;20.336;2022-10-29T07:05:32;180.10;6502.40
55331;DHT22;58851;42.984;20.336;2022-10-29T07:07:59;204.80;6502.40
55331;DHT22;58851;42.984;20.336;2022-10-29T07:10:27;204.80;6502.40
55331;DHT22;58851;42.984;20.336;2022-10-29T07:12:54;204.80;6502.40
55331;DHT22;58851;42.984;20.336;2022-10-29T07:15:20;204.80;6502.40
55331;DHT22;58851;42.984;20.336;2022-10-29T07:17:56;204.80;6502.40
55331;DHT22;58851;42.984;20.336;2022-10-29T07:20:22;204.80;6502.40
55331;DHT22;58851;42.984;20.336;2022-10-29T07:22:48;204.90;6502.40
55331;DHT22;58851;42.984;20.336;2022-10-29T07:25:14;204.90;6502.40
55331;DHT22;58851;42.984;20.336;2022-10-29T07:27:40;205.00;6502.40
55331;DHT22;58851;42.984;20.336;2022-10-29T07:30:06;205.20;6502.40
55331;DHT22;58851;42.984;20.336;2022-10-29T07:32:32;205.30;6502.40
55331;DHT22;58851;42.984;20.336;2022-10-29T07:34:57;205.50;6502.40
55331;DHT22;58851;42.984;20.336;2022-10-29T07:37:23;205.60;6502.40
55331;DHT22;58851;42.984;20.336;2022-10-29T07:39:49;205.60;6502.40
55331;DHT22;58851;42.984;20.336;2022-10-29T07:42:14;205.60;6502.40
55331;DHT22;58851;42.984;20.336;2022-10-29T07:44:40;205.50;6502.40
55331;DHT22;58851;42.984;20.336;2022-10-29T07:47:06;205.60;6502.40
55331;DHT22;58851;42.984;20.336;2022-10-29T07:49:32;205.70;6502.40
55331;DHT22;58851;42.984;20.336;2022-10-29T07:51:58;230.50;6502.40
55331;DHT22;58851;42.984;20.336;2022-10-29T07:54:23;230.40;6502.40
55331;DHT22;58851;42.984;20.336;2022-10-29T07:56:51;230.50;6502.40
55331;DHT22;58851;42.984;20.336;2022-10-29T07:59:17;230.40;6502.40
55331;DHT22;58851;42.984;20.336;2022-10-29T08:01:44;205.50;6502.40
55331;DHT22;58851;42.984;20.336;2022-10-29T08:04:11;205.30;6502.40
55331;DHT22;58851;42.984;20.336;2022-10-29T08:06:38;205.30;6502.40
55331;DHT22;58851;42.984;20.336;2022-10-29T08:09:04;205.50;6502.40
55331;DHT22;58851;42.984;20.336;2022-10-29T08:11:31;205.60;6502.40
55331;DHT22;58851;42.984;20.336;2022-10-29T08:13:57;205.70;6502.40
55331;DHT22;58851;42.984;20.336;2022-10-29T08:16:24;230.50;6502.40
55331;DHT22;58851;42.984;20.336;2022-10-29T08:18:50;230.60;6502.40
55331;DHT22;58851;42.984;20.336;2022-10-29T08:21:16;230.70;6502.40
55331;DHT22;58851;42.984;20.336;2022-10-29T08:23:43;230.90;6502.40
55331;DHT22;58851;42.984;20.336;2022-10-29T08:26:09;231.10;6502.40
55331;DHT22;58851;42.984;20.336;2022-10-29T08:28:35;231.30;6502.40
55331;DHT22;58851;42.984;20.336;2022-10-29T08:31:01;231.30;6502.40
55331;DHT22;58851;42.984;20.336;2022-10-29T08:33:27;256.00;6502.40
55331;DHT22;58851;42.984;20.336;2022-10-29T08:35:53;231.30;6502.40
55331;DHT22;58851;42.984;20.336;2022-10-29T08:38:20;231.30;6502.40
55331;DHT22;58851;42.984;20.336;2022-10-29T08:46:46;256.10;6502.40
55331;DHT22;58851;42.984;20.336;2022-10-29T08:49:25;256.20;6502.40
55331;DHT22;58851;42.984;20.336;2022-10-29T08:52:02;256.10;6502.40
55331;DHT22;58851;42.984;20.336;2022-10-29T08:54:32;231.30;6502.40
55331;DHT22;58851;42.984;20.336;2022-10-29T08:57:05;256.20;6502.40
55331;DHT22;58851;42.984;20.336;2022-10-29T08:59:36;256.30;6502.40
55331;DHT22;58851;42.984;20.336;2022-10-29T09:02:14;256.30;6502.40
55331;DHT22;58851;42.984;20.336;2022-10-29T09:04:41;256.40;6502.40
55331;DHT22;58851;42.984;20.336;2022-10-29T09:09:50;256.40;6502.40
55331;DHT22;58851;42.984;20.336;2022-10-29T09:12:27;256.50;6502.40
55331;DHT22;58851;42.984;20.336;2022-10-29T09:18:12;256.50;6502.40
55331;DHT22;58851;42.984;20.336;2022-10-29T09:23:29;256.40;6502.40
55331;DHT22;58851;42.984;20.336;2022-10-29T09:26:16;256.30;6502.40
55331;DHT22;58851;42.984;20.336;2022-10-29T09:31:52;256.50;6502.40
55331;DHT22;58851;42.984;20.336;2022-10-29T09:34:41;256.80;6502.40
55331;DHT22;58851;42.984;20.336;2022-10-29T09:37:16;256.80;6502.40
55331;DHT22;58851;42.984;20.336;2022-10-29T09:39:43;256.90;6502.40
55331;DHT22;58851;42.984;20.336;2022-10-29T09:42:22;281.60;6528.00
55331;DHT22;58851;42.984;20.336;2022-10-29T09:44:55;281.70;6528.00
55331;DHT22;58851;42.984;20.336;2022-10-29T09:53:26;282.30;6528.00
55331;DHT22;58851;42.984;20.336;2022-10-29T09:55:54;282.40;6528.00
55331;DHT22;58851;42.984;20.336;2022-10-29T09:58:22;282.40;6528.00
55331;DHT22;58851;42.984;20.336;2022-10-29T10:00:50;307.30;128.00
55331;DHT22;58851;42.984;20.336;2022-10-29T10:06:09;307.60;128.00
55331;DHT22;58851;42.984;20.336;2022-10-29T10:09:02;307.80;128.00
55331;DHT22;58851;42.984;20.336;2022-10-29T10:11:45;308.00;128.00
55331;DHT22;58851;42.984;20.336;2022-10-29T10:14:19;332.80;128.00
55331;DHT22;58851;42.984;20.336;2022-10-29T10:16:56;332.90;128.00
55331;DHT22;58851;42.984;20.336;2022-10-29T10:19:30;333.00;512.00
55331;DHT22;58851;42.984;20.336;2022-10-29T10:21:59;333.00;409.60
55331;DHT22;58851;42.984;20.336;2022-10-29T10:24:38;333.30;640.00
55331;DHT22;58851;42.984;20.336;2022-10-29T10:30:05;333.40;128.00
55331;DHT22;58851;42.984;20.336;2022-10-29T10:32:30;333.60;128.00
55331;DHT22;58851;42.984;20.336;2022-10-29T10:34:56;333.70;128.00
55331;DHT22;58851;42.984;20.336;2022-10-29T10:37:22;358.50;307.20
55331;DHT22;58851;42.984;20.336;2022-10-29T10:40:02;358.60;128.00
55331;DHT22;58851;42.984;20.336;2022-10-29T10:42:33;358.90;128.00
55331;DHT22;58851;42.984;20.336;2022-10-29T10:45:16;359.30;128.00
55331;DHT22;58851;42.984;20.336;2022-10-29T10:47:46;359.30;128.00
55331;DHT22;58851;42.984;20.336;2022-10-29T10:50:20;384.10;128.00
55331;DHT22;58851;42.984;20.336;2022-10-29T10:52:48;384.20;128.00
55331;DHT22;58851;42.984;20.336;2022-10-29T10:55:27;384.40;128.00
55331;DHT22;58851;42.984;20.336;2022-10-29T10:58:04;384.70;128.00
55331;DHT22;58851;42.984;20.336;2022-10-29T11:00:46;384.90;128.00
55331;DHT22;58851;42.984;20.336;2022-10-29T11:03:18;409.80;128.00
55331;DHT22;58851;42.984;20.336;2022-10-29T11:05:53;410.10;128.00
55331;DHT22;58851;42.984;20.336;2022-10-29T11:08:37;410.10;128.00
55331;DHT22;58851;42.984;20.336;2022-10-29T11:11:23;410.50;128.00
55331;DHT22;58851;42.984;20.336;2022-10-29T11:13:53;435.20;128.00
55331;DHT22;58851;42.984;20.336;2022-10-29T11:16:45;435.40;128.00
55331;DHT22;58851;42.984;20.336;2022-10-29T11:19:37;435.60;128.00
55331;DHT22;58851;42.984;20.336;2022-10-29T11:25:15;436.10;128.00
55331;DHT22;58851;42.984;20.336;2022-10-29T11:27:56;461.00;128.00
55331;DHT22;58851;42.984;20.336;2022-10-29T11:30:25;461.10;128.00
55331;DHT22;58851;42.984;20.336;2022-10-29T11:35:44;461.30;128.00
55331;DHT22;58851;42.984;20.336;2022-10-29T11:41:43;461.50;128.00
55331;DHT22;58851;42.984;20.336;2022-10-29T11:44:13;461.70;128.00
55331;DHT22;58851;42.984;20.336;2022-10-29T11:47:09;486.60;128.00
55331;DHT22;58851;42.984;20.336;2022-10-29T11:52:07;486.90;128.00
55331;DHT22;58851;42.984;20.336;2022-10-29T12:14:25;537.80;128.00
55331;DHT22;58851;42.984;20.336;2022-10-29T12:16:58;538.10;128.00
55331;DHT22;58851;42.984;20.336;2022-10-29T12:19:35;538.10;128.00
55331;DHT22;58851;42.984;20.336;2022-10-29T12:25:03;538.40;128.00
55331;DHT22;58851;42.984;20.336;2022-10-29T12:30:00;563.20;128.00
55331;DHT22;58851;42.984;20.336;2022-10-29T12:35:25;563.50;128.00
55331;DHT22;58851;42.984;20.336;2022-10-29T12:38:12;563.60;128.00
55331;DHT22;58851;42.984;20.336;2022-10-29T12:40:43;563.80;128.00
55331;DHT22;58851;42.984;20.336;2022-10-29T12:43:25;564.10;128.00
55331;DHT22;58851;42.984;20.336;2022-10-29T12:46:22;588.80;128.00
55331;DHT22;58851;42.984;20.336;2022-10-29T12:49:16;588.90;128.00
55331;DHT22;58851;42.984;20.336;2022-10-29T12:51:55;589.10;128.00
55331;DHT22;58851;42.984;20.336;2022-10-29T12:54:43;589.20;128.00
55331;DHT22;58851;42.984;20.336;2022-10-29T12:59:39;589.40;128.00
55331;DHT22;58851;42.984;20.336;2022-10-29T13:07:32;589.70;128.00
55331;DHT22;58851;42.984;20.336;2022-10-29T13:15:48;614.50;128.00
55331;DHT22;58851;42.984;20.336;2022-10-29T13:18:30;614.80;128.00
55331;DHT22;58851;42.984;20.336;2022-10-29T13:20:58;615.10;128.00
55331;DHT22;58851;42.984;20.336;2022-10-29T13:25:58;640.10;128.00
55331;DHT22;58851;42.984;20.336;2022-10-29T13:31:39;640.30;128.00
55331;DHT22;58851;42.984;20.336;2022-10-29T13:38:59;640.60;128.00
55331;DHT22;58851;42.984;20.336;2022-10-29T13:41:38;640.90;128.00
55331;DHT22;58851;42.984;20.336;2022-10-29T13:47:03;665.60;153.60
55331;DHT22;58851;42.984;20.336;2022-10-29T13:49:40;665.70;153.60
55331;DHT22;58851;42.984;20.336;2022-10-29T13:59:41;640.60;128.00
55331;DHT22;58851;42.984;20.336;2022-10-29T14:02:25;640.30;128.00
55331;DHT22;58851;42.984;20.336;2022-10-29T14:05:05;640.10;128.00
55331;DHT22;58851;42.984;20.336;2022-10-29T14:07:49;615.00;128.00
55331;DHT22;58851;42.984;20.336;2022-10-29T14:10:23;614.80;128.00
55331;DHT22;58851;42.984;20.336;2022-10-29T14:12:54;614.40;128.00
55331;DHT22;58851;42.984;20.336;2022-10-29T14:15:21;589.60;128.00
55331;DHT22;58851;42.984;20.336;2022-10-29T14:17:47;589.20;128.00
55331;DHT22;58851;42.984;20.336;2022-10-29T14:20:25;588.80;128.00
55331;DHT22;58851;42.984;20.336;2022-10-29T14:22:51;563.80;128.00
55331;DHT22;58851;42.984;20.336;2022-10-29T14:25:33;563.60;128.00
55331;DHT22;58851;42.984;20.336;2022-10-29T14:28:22;563.20;128.00
55331;DHT22;58851;42.984;20.336;2022-10-29T14:31:39;538.30;128.00
55331;DHT22;58851;42.984;20.336;2022-10-29T14:33:55;538.00;128.00
55331;DHT22;58851;42.984;20.336;2022-10-29T14:36:25;537.80;128.00
55331;DHT22;58851;42.984;20.336;2022-10-29T14:38:59;537.60;128.00
55331;DHT22;58851;42.984;20.336;2022-10-29T14:41:29;512.70;128.00
55331;DHT22;58851;42.984;20.336;2022-10-29T14:44:13;512.40;128.00
55331;DHT22;58851;42.984;20.336;2022-10-29T14:46:40;512.20;128.00
55331;DHT22;58851;42.984;20.336;2022-10-29T14:51:46;512.00;128.00
55331;DHT22;58851;42.984;20.336;2022-10-29T14:54:18;487.10;128.00
55331;DHT22;58851;42.984;20.336;2022-10-29T14:56:48;486.90;128.00
55331;DHT22;58851;42.984;20.336;2022-10-29T14:59:20;486.70;128.00
55331;DHT22;58851;42.984;20.336;2022-10-29T15:01:52;486.60;128.00
55331;DHT22;58851;42.984;20.336;2022-10-29T15:04:24;486.60;128.00
55331;DHT22;58851;42.984;20.336;2022-10-29T15:07:13;486.40;128.00
55331;DHT22;58851;42.984;20.336;2022-10-29T15:09:37;461.70;128.00
55331;DHT22;58851;42.984;20.336;2022-10-29T15:12:16;461.50;128.00
55331;DHT22;58851;42.984;20.336;2022-10-29T15:14:48;461.40;128.00
55331;DHT22;58851;42.984;20.336;2022-10-29T15:17:26;461.30;128.00
55331;DHT22;58851;42.984;20.336;2022-10-29T15:19:59;461.20;128.00
55331;DHT22;58851;42.984;20.336;2022-10-29T15:22:37;461.00;128.00
55331;DHT22;58851;42.984;20.336;2022-10-29T15:25:06;461.00;128.00
55331;DHT22;58851;42.984;20.336;2022-10-29T15:27:37;460.80;128.00
55331;DHT22;58851;42.984;20.336;2022-10-29T15:30:04;436.10;128.00
55331;DHT22;58851;42.984;20.336;2022-10-29T15:32:30;435.90;128.00
55331;DHT22;58851;42.984;20.336;2022-10-29T15:34:57;435.70;128.00
55331;DHT22;58851;42.984;20.336;2022-10-29T15:42:25;435.20;128.00
55331;DHT22;58851;42.984;20.336;2022-10-29T15:45:13;410.50;128.00
55331;DHT22;58851;42.984;20.336;2022-10-29T15:50:40;410.20;128.00
55331;DHT22;58851;42.984;20.336;2022-10-29T15:53:12;410.00;128.00
55331;DHT22;58851;42.984;20.336;2022-10-29T15:55:39;409.80;128.00
55331;DHT22;58851;42.984;20.336;2022-10-29T15:58:16;409.60;128.00
55331;DHT22;58851;42.984;20.336;2022-10-29T16:00:42;384.90;128.00
55331;DHT22;58851;42.984;20.336;2022-10-29T16:03:12;384.70;128.00
55331;DHT22;58851;42.984;20.336;2022-10-29T16:05:39;384.60;128.00
55331;DHT22;58851;42.984;20.336;2022-10-29T16:08:05;384.30;128.00
55331;DHT22;58851;42.984;20.336;2022-10-29T16:10:31;384.20;128.00
55331;DHT22;58851;42.984;20.336;2022-10-29T16:12:58;384.00;128.00
55331;DHT22;58851;42.984;20.336;2022-10-29T16:15:24;359.20;128.00
55331;DHT22;58851;42.984;20.336;2022-10-29T16:17:49;359.00;128.00
55331;DHT22;58851;42.984;20.336;2022-10-29T16:20:17;359.00;128.00
55331;DHT22;58851;42.984;20.336;2022-10-29T16:22:44;358.90;128.00
55331;DHT22;58851;42.984;20.336;2022-10-29T16:25:29;358.80;128.00
55331;DHT22;58851;42.984;20.336;2022-10-29T16:27:55;358.60;128.00
55331;DHT22;58851;42.984;20.336;2022-10-29T16:30:22;358.60;128.00
55331;DHT22;58851;42.984;20.336;2022-10-29T16:32:48;358.60;128.00
55331;DHT22;58851;42.984;20.336;2022-10-29T16:35:25;358.60;128.00
55331;DHT22;58851;42.984;20.336;2022-10-29T16:37:53;358.50;128.00
55331;DHT22;58851;42.984;20.336;2022-10-29T16:40:21;358.40;128.00
55331;DHT22;58851;42.984;20.336;2022-10-29T16:42:48;358.40;128.00
55331;DHT22;58851;42.984;20.336;2022-10-29T16:47:41;333.40;128.00
55331;DHT22;58851;42.984;20.336;2022-10-29T16:50:08;333.50;128.00
55331;DHT22;58851;42.984;20.336;2022-10-29T16:52:38;333.30;128.00
55331;DHT22;58851;42.984;20.336;2022-10-29T16:55:04;333.40;128.00
55331;DHT22;58851;42.984;20.336;2022-10-29T16:57:30;333.30;128.00
55331;DHT22;58851;42.984;20.336;2022-10-29T16:59:56;333.20;128.00
55331;DHT22;58851;42.984;20.336;2022-10-29T17:02:21;333.10;128.00
55331;DHT22;58851;42.984;20.336;2022-10-29T17:04:47;333.00;128.00
55331;DHT22;58851;42.984;20.336;2022-10-29T17:07:13;332.90;128.00
55331;DHT22;58851;42.984;20.336;2022-10-29T17:09:40;333.00;128.00
55331;DHT22;58851;42.984;20.336;2022-10-29T17:12:06;332.90;128.00
55331;DHT22;58851;42.984;20.336;2022-10-29T17:14:32;308.10;128.00
55331;DHT22;58851;42.984;20.336;2022-10-29T17:16:57;332.80;128.00